createdAt,value
2023-04-02T00:01:53.844Z,99260.7
2023-04-02T00:04:01.635Z,99267.54
2023-04-02T00:06:11.980Z,99271.06
2023-04-02T00:08:24.234Z,99274.1
2023-04-02T00:10:35.508Z,99271.65
2023-04-02T00:12:47.542Z,99272.23
2023-04-02T00:14:58.162Z,99273.38
2023-04-02T00:17:09.301Z,99276.25
2023-04-02T00:19:16.014Z,99278.64
2023-04-02T00:21:26.372Z,99273.46
2023-04-02T00:23:42.307Z,99270.75
2023-04-02T00:25:51.415Z,99278
2023-04-02T00:28:02.016Z,99277.09
2023-04-02T00:30:12.044Z,99273.39
2023-04-02T00:32:18.951Z,99276.91
2023-04-02T00:34:27.080Z,99272.88
2023-04-02T00:36:38.098Z,99270.19
2023-04-02T00:38:50.295Z,99272.06
2023-04-02T00:43:55.801Z,99276.25
2023-04-02T00:46:05.944Z,99279.22
2023-04-02T00:48:19.008Z,99275.69
2023-04-02T00:50:35.465Z,99277.09
2023-04-02T00:52:47.268Z,99283.5
2023-04-02T00:54:54.349Z,99281.03
2023-04-02T00:57:04.045Z,99279.78
2023-04-02T00:59:13.084Z,99283.91
2023-04-02T01:01:22.888Z,99284.96
2023-04-02T01:03:35.305Z,99288.84
2023-04-02T01:05:44.430Z,99286.86
2023-04-02T01:07:56.981Z,99288.85
2023-04-02T01:10:08.393Z,99289.83
2023-04-02T01:12:16.474Z,99289.18
2023-04-02T01:14:28.412Z,99294.52
2023-04-02T01:16:36.912Z,99294.02
2023-04-02T01:18:51.547Z,99291.38
2023-04-02T01:21:01.903Z,99288.88
2023-04-02T01:23:13.458Z,99293.13
2023-04-02T01:25:25.065Z,99288.13
2023-04-02T01:27:41.968Z,99290.52
2023-04-02T01:29:52.299Z,99290.83
2023-04-02T01:31:59.652Z,99289.78
2023-04-02T01:34:12.830Z,99288.63
2023-04-02T01:36:22.087Z,99289.22
2023-04-02T01:38:42.008Z,99289.06
2023-04-02T01:40:49.129Z,99293.81
2023-04-02T01:42:56.756Z,99293.01
2023-04-02T01:45:06.287Z,99299.47
2023-04-02T01:47:16.912Z,99303.84
2023-04-02T01:49:23.776Z,99305.72
2023-04-02T01:51:31.257Z,99306.48
2023-04-02T01:53:44.475Z,99304.84
2023-04-02T01:55:53.743Z,99306.48
2023-04-02T01:58:02.866Z,99311.89
2023-04-02T02:00:15.041Z,99318.98
2023-04-02T02:02:25.571Z,99322.25
2023-04-02T02:04:33.838Z,99326.68
2023-04-02T02:06:40.672Z,99327.19
2023-04-02T02:08:55.464Z,99329.55
2023-04-02T02:11:03.068Z,99332.51
2023-04-02T02:13:12.177Z,99338.36
2023-04-02T02:15:22.285Z,99342.28
2023-04-02T02:17:30.461Z,99341.88
2023-04-02T02:19:43.098Z,99339.84
2023-04-02T02:21:53.934Z,99343.92
2023-04-02T02:24:11.006Z,99344.84
2023-04-02T02:26:20.903Z,99348.44
2023-04-02T02:28:35.113Z,99348.78
2023-04-02T02:30:41.875Z,99350.59
2023-04-02T02:32:53.098Z,99353.8
2023-04-02T02:35:02.180Z,99351.31
2023-04-02T02:37:13.310Z,99355.44
2023-04-02T02:39:20.555Z,99356.67
2023-04-02T02:41:30.500Z,99361.92
2023-04-02T02:43:39.984Z,99360.45
2023-04-02T02:45:46.900Z,99365.21
2023-04-02T02:48:05.026Z,99366.84
2023-04-02T02:50:12.432Z,99369.65
2023-04-02T02:52:25.612Z,99370.89
2023-04-02T02:54:36.802Z,99375.09
2023-04-02T02:56:51.514Z,99378.94
2023-04-02T02:58:58.788Z,99381.89
2023-04-02T03:01:05.864Z,99390.77
2023-04-02T03:03:20.482Z,99389.45
2023-04-02T03:05:30.340Z,99390.21
2023-04-02T03:07:38.252Z,99392.92
2023-04-02T03:09:51.915Z,99394.14
2023-04-02T03:12:08.496Z,99400.7
2023-04-02T03:14:20.861Z,99399.22
2023-04-02T03:16:33.586Z,99399.57
2023-04-02T03:18:45.995Z,99400.29
2023-04-02T03:20:55.268Z,99404.64
2023-04-02T03:23:04.804Z,99407.7
2023-04-02T03:25:19.701Z,99411.64
2023-04-02T03:27:31.011Z,99414.61
2023-04-02T03:29:43.308Z,99412.78
2023-04-02T03:31:49.830Z,99413.93
2023-04-02T03:34:03.573Z,99412.28
2023-04-02T03:36:15.383Z,99418.93
2023-04-02T03:38:25.510Z,99416.12
2023-04-02T03:40:35.612Z,99426.5
2023-04-02T03:42:48.453Z,99428.78
2023-04-02T03:44:57.507Z,99423.38
2023-04-02T03:47:04.986Z,99427.19
2023-04-02T03:49:22.327Z,99432.47
2023-04-02T03:51:37.992Z,99434.83
2023-04-02T03:53:50.676Z,99440.81
2023-04-02T03:56:00.084Z,99439.08
2023-04-02T03:58:06.906Z,99444.36
2023-04-02T04:00:18.653Z,99446.48
2023-04-02T04:02:26.178Z,99452.54
2023-04-02T04:04:37.812Z,99455.74
2023-04-02T04:06:54.180Z,99460.48
2023-04-02T04:09:05.356Z,99463.42
2023-04-02T04:11:17.503Z,99464.51
2023-04-02T04:13:27.404Z,99475.99
2023-04-02T04:15:41.406Z,99474.35
2023-04-02T04:17:51.800Z,99475.17
2023-04-02T04:19:58.963Z,99479.03
2023-04-02T04:22:13.567Z,99483.23
2023-04-02T04:24:25.736Z,99481.51
2023-04-02T04:26:37.203Z,99483.41
2023-04-02T04:28:54.513Z,99487.17
2023-04-02T04:31:03.754Z,99487.42
2023-04-02T04:33:15.401Z,99488.08
2023-04-02T04:35:22.087Z,99491.36
2023-04-02T04:37:30.250Z,99492.59
2023-04-02T04:39:41.588Z,99492.95
2023-04-02T04:41:55.426Z,99497.55
2023-04-02T04:44:07.718Z,99496.62
2023-04-02T04:46:19.851Z,99501.84
2023-04-02T04:48:27.516Z,99501.34
2023-04-02T04:50:41.300Z,99500.95
2023-04-02T04:52:54.754Z,99504.9
2023-04-02T04:55:07.161Z,99508.78
2023-04-02T04:57:22.860Z,99513.38
2023-04-02T04:59:37.606Z,99515.09
2023-04-02T05:01:48.396Z,99520.09
2023-04-02T05:04:05.546Z,99517.98
2023-04-02T05:06:17.477Z,99520.09
2023-04-02T05:08:32.680Z,99525.09
2023-04-02T05:10:42.789Z,99528.55
2023-04-02T05:12:52.406Z,99527.42
2023-04-02T05:15:05.957Z,99531.28
2023-04-02T05:17:12.805Z,99531.85
2023-04-02T05:19:27.171Z,99533.63
2023-04-02T05:21:41.500Z,99532.42
2023-04-02T05:23:49.004Z,99535.72
2023-04-02T05:25:58.154Z,99543.42
2023-04-02T05:28:08.572Z,99548.52
2023-04-02T05:30:18.659Z,99552.75
2023-04-02T05:32:29.080Z,99561.55
2023-04-02T05:34:41.602Z,99568.13
2023-04-02T05:36:55.458Z,99569.3
2023-04-02T05:39:08.796Z,99570.34
2023-04-02T05:41:29.578Z,99572.85
2023-04-02T05:43:41.178Z,99579.86
2023-04-02T05:45:48.464Z,99576.71
2023-04-02T05:47:55.565Z,99579.67
2023-04-02T05:50:07.694Z,99585.08
2023-04-02T05:52:19.531Z,99592.81
2023-04-02T05:54:36.091Z,99595.73
2023-04-02T05:56:48.794Z,99597.52
2023-04-02T05:59:06.506Z,99603.36
2023-04-02T06:01:26.059Z,99602.2
2023-04-02T06:04:08.759Z,99609.47
2023-04-02T06:06:17.123Z,99613.41
2023-04-02T06:08:24.038Z,99617.47
2023-04-02T06:10:36.655Z,99618.28
2023-04-02T06:12:47.303Z,99618.23
2023-04-02T06:14:59.918Z,99622.77
2023-04-02T06:17:34.554Z,99623.21
2023-04-02T06:19:53.926Z,99621.45
2023-04-02T06:22:29.227Z,99632.98
2023-04-02T06:24:43.624Z,99637.34
2023-04-02T06:27:16.039Z,99633.51
2023-04-02T06:29:23.384Z,99632.5
2023-04-02T06:31:31.346Z,99633.59
2023-04-02T06:33:38.510Z,99636.95
2023-04-02T06:35:45.300Z,99641.13
2023-04-02T06:37:58.562Z,99643.73
2023-04-02T06:43:20.329Z,99649.23
2023-04-02T06:45:33.634Z,99651.65
2023-04-02T06:47:41.531Z,99648.78
2023-04-02T06:49:49.325Z,99650.81
2023-04-02T06:52:02.152Z,99657.09
2023-04-02T06:54:23.702Z,99657.34
2023-04-02T06:56:31.395Z,99660.96
2023-04-02T06:58:42.249Z,99661.44
2023-04-02T07:00:49.641Z,99669.42
2023-04-02T07:03:00.020Z,99669.8
2023-04-02T07:05:08.552Z,99665.73
2023-04-02T07:07:30.816Z,99674.39
2023-04-02T07:09:38.039Z,99675.94
2023-04-02T07:11:50.236Z,99681.14
2023-04-02T07:14:00.623Z,99683.59
2023-04-02T07:16:08.846Z,99684.66
2023-04-02T07:18:27.476Z,99692.25
2023-04-02T07:20:35.387Z,99694.95
2023-04-02T07:22:44.499Z,99697.67
2023-04-02T07:24:55.005Z,99699.92
2023-04-02T07:27:03.736Z,99705.17
2023-04-02T07:29:14.816Z,99709.83
2023-04-02T07:31:26.905Z,99715.23
2023-04-02T07:33:36.637Z,99713.83
2023-04-02T07:35:48.396Z,99714.27
2023-04-02T07:37:56.981Z,99715.95
2023-04-02T07:40:07.612Z,99713.59
2023-04-02T07:42:15.039Z,99721.59
2023-04-02T07:44:22.685Z,99725.48
2023-04-02T07:46:31.711Z,99724.67
2023-04-02T07:48:45.430Z,99724.66
2023-04-02T07:50:59.312Z,99730.8
2023-04-02T07:53:17.272Z,99737.53
2023-04-02T07:55:24.236Z,99744.42
2023-04-02T07:57:37.719Z,99764.06
2023-04-02T07:59:45.567Z,99769.17
2023-04-02T08:02:02.190Z,99769.66
2023-04-02T08:04:16.677Z,99768.7
2023-04-02T08:06:30.512Z,99767.48
2023-04-02T08:08:39.573Z,99765.09
2023-04-02T08:10:48.028Z,99771.36
2023-04-02T08:12:55.323Z,99774.31
2023-04-02T08:15:07.709Z,99786.11
2023-04-02T08:17:15.482Z,99786.98
2023-04-02T08:19:23.730Z,99789.19
2023-04-02T08:21:34.723Z,99787.08
2023-04-02T08:23:49.104Z,99797.25
2023-04-02T08:25:57.049Z,99804.3
2023-04-02T08:28:04.697Z,99808.05
2023-04-02T08:30:12.141Z,99808.5
2023-04-02T08:32:21.171Z,99814.69
2023-04-02T08:34:30.629Z,99813.3
2023-04-02T08:36:39.016Z,99814.91
2023-04-02T08:38:49.787Z,99818.26
2023-04-02T08:41:05.435Z,99822.47
2023-04-02T08:43:14.318Z,99821.56
2023-04-02T08:45:26.772Z,99823.81
2023-04-02T08:47:34.674Z,99827.09
2023-04-02T08:49:43.408Z,99828.8
2023-04-02T08:51:51.639Z,99830.23
2023-04-02T08:54:03.128Z,99828.41
2023-04-02T08:56:11.160Z,99831.33
2023-04-02T08:58:18.556Z,99827.15
2023-04-02T09:00:26.510Z,99827.8
2023-04-02T09:02:34.876Z,99825.98
2023-04-02T09:04:42.387Z,99826.35
2023-04-02T09:06:49.713Z,99824.91
2023-04-02T09:08:57.709Z,99830.23
2023-04-02T09:11:05.635Z,99833.67
2023-04-02T09:13:26.839Z,99840.67
2023-04-02T09:15:37.808Z,99842.17
2023-04-02T09:17:57.653Z,99849.63
2023-04-02T09:20:12.944Z,99851.73
2023-04-02T09:22:21.215Z,99853.95
2023-04-02T09:24:32.433Z,99854.88
2023-04-02T09:26:40.530Z,99859.45
2023-04-02T09:28:51.862Z,99854.91
2023-04-02T09:30:59.612Z,99856.77
2023-04-02T09:33:13.914Z,99868.27
2023-04-02T09:35:28.570Z,99870.34
2023-04-02T09:37:39.419Z,99869.94
2023-04-02T09:39:50.244Z,99876.48
2023-04-02T09:42:10.729Z,99866.64
2023-04-02T09:44:22.302Z,99875.56
2023-04-02T09:46:31.069Z,99880.63
2023-04-02T09:48:41.341Z,99882.11
2023-04-02T09:50:49.561Z,99882.89
2023-04-02T09:53:16.045Z,99881.2
2023-04-02T09:55:30.604Z,99885.52
2023-04-02T09:57:39.240Z,99888.44
2023-04-02T09:59:50.429Z,99891.55
2023-04-02T10:01:58.725Z,99893.05
2023-04-02T10:04:10.985Z,99897.48
2023-04-02T10:06:18.777Z,99900.48
2023-04-02T10:08:29.001Z,99903.85
2023-04-02T10:10:39.682Z,99904.94
2023-04-02T10:12:51.863Z,99907.34
2023-04-02T10:15:02.550Z,99908.21
2023-04-02T10:17:13.383Z,99911.04
2023-04-02T10:19:24.460Z,99912.66
2023-04-02T10:21:34.915Z,99919.03
2023-04-02T10:23:42.878Z,99921.38
2023-04-02T10:25:51.426Z,99924.84
2023-04-02T10:28:13.689Z,99926.09
2023-04-02T10:30:51.554Z,99933.43
2023-04-02T10:34:06.630Z,99940.7
2023-04-02T10:36:37.834Z,99943.91
2023-04-02T10:39:08.060Z,99949.02
2023-04-02T10:41:22.225Z,99946.14
2023-04-02T10:43:43.869Z,99950.71
2023-04-02T10:45:57.201Z,99944.86
2023-04-02T10:48:07.103Z,99951.09
2023-04-02T10:50:23.811Z,99948.69
2023-04-02T10:52:33.657Z,99952.46
2023-04-02T10:54:45.416Z,99953.37
2023-04-02T10:56:53.343Z,99957.16
2023-04-02T10:59:04.140Z,99962.52
2023-04-02T11:01:12.361Z,99971.52
2023-04-02T11:03:21.683Z,99973.92
2023-04-02T11:05:31.600Z,99979.09
2023-04-02T11:07:44.391Z,99979.78
2023-04-02T11:09:56.899Z,99983.84
2023-04-02T11:12:11.592Z,99984.83
2023-04-02T11:14:26.898Z,99991.61
2023-04-02T11:16:42.649Z,99997.66
2023-04-02T11:18:52.921Z,99999.36
2023-04-02T11:21:01.236Z,100006.16
2023-04-02T11:23:14.945Z,100008.41
2023-04-02T11:25:29.333Z,100014.64
2023-04-02T11:27:39.443Z,100018.97
2023-04-02T11:29:49.772Z,100022.78
2023-04-02T11:32:03.377Z,100025.17
2023-04-02T11:34:13.026Z,100029.91
2023-04-02T11:36:24.234Z,100033.2
2023-04-02T11:38:36.283Z,100028.94
2023-04-02T11:40:46.501Z,100028.32
2023-04-02T11:42:55.484Z,100030.45
2023-04-02T11:45:11.907Z,100034.61
2023-04-02T11:47:20.836Z,100033.78
2023-04-02T11:49:30.315Z,100038.95
2023-04-02T11:51:39.249Z,100035.66
2023-04-02T11:53:48.115Z,100046.05
2023-04-02T11:55:56.677Z,100045.72
2023-04-02T11:58:04.500Z,100050.47
2023-04-02T12:00:13.084Z,100054.2
2023-04-02T12:02:24.997Z,100056.91
2023-04-02T12:04:34.078Z,100065.23
2023-04-02T12:06:42.428Z,100072.34
2023-04-02T12:08:59.955Z,100077.59
2023-04-02T12:11:08.365Z,100073.16
2023-04-02T12:13:16.953Z,100075.16
2023-04-02T12:15:25.415Z,100078.58
2023-04-02T12:17:34.973Z,100077.61
2023-04-02T12:19:44.245Z,100085.22
2023-04-02T12:21:53.918Z,100092.27
2023-04-02T12:24:01.843Z,100094.02
2023-04-02T12:26:09.580Z,100098.34
2023-04-02T12:28:20.192Z,100100
2023-04-02T12:30:29.272Z,100100.23
2023-04-02T12:32:39.239Z,100096.84
2023-04-02T12:34:49.830Z,100103.84
2023-04-02T12:36:58.157Z,100107.79
2023-04-02T12:39:06.244Z,100110.44
2023-04-02T12:41:13.529Z,100111.49
2023-04-02T12:43:23.076Z,100112.25
2023-04-02T12:45:31.872Z,100110.27
2023-04-02T12:47:40.661Z,100115.56
2023-04-02T12:49:48.648Z,100112.44
2023-04-02T12:51:56.833Z,100111.5
2023-04-02T12:54:05.517Z,100115.38
2023-04-02T12:56:14.271Z,100118.61
2023-04-02T12:58:22.406Z,100120.25
2023-04-02T13:00:32.485Z,100122.06
2023-04-02T13:02:44.366Z,100121.98
2023-04-02T13:04:52.504Z,100118.24
2023-04-02T13:07:02.901Z,100123.58
2023-04-02T13:09:12.596Z,100123.28
2023-04-02T13:11:21.681Z,100124.69
2023-04-02T13:13:31.034Z,100121.49
2023-04-02T13:15:41.094Z,100130.41
2023-04-02T13:17:50.267Z,100132.43
2023-04-02T13:19:58.566Z,100134.95
2023-04-02T13:22:06.573Z,100136.01
2023-04-02T13:24:18.797Z,100147.91
2023-04-02T13:26:34.106Z,100148.14
2023-04-02T13:28:58.301Z,100153.28
2023-04-02T13:31:11.443Z,100156.71
2023-04-02T13:33:22.510Z,100156.19
2023-04-02T13:35:32.492Z,100161.98
2023-04-02T13:37:41.090Z,100161.66
2023-04-02T13:39:49.402Z,100159.77
2023-04-02T13:41:59.524Z,100167.23
2023-04-02T13:44:08.051Z,100164.53
2023-04-02T13:46:17.773Z,100162.12
2023-04-02T13:48:27.790Z,100161.31
2023-04-02T13:50:37.687Z,100162.57
2023-04-02T13:52:47.201Z,100163.59
2023-04-02T13:54:57.012Z,100169.44
2023-04-02T13:57:06.888Z,100167.83
2023-04-02T13:59:15.380Z,100170.08
2023-04-02T14:01:23.842Z,100163.77
2023-04-02T14:03:33.612Z,100169.53
2023-04-02T14:05:43.174Z,100169.75
2023-04-02T14:07:54.059Z,100169.78
2023-04-02T14:10:02.948Z,100178.45
2023-04-02T14:12:15.803Z,100180
2023-04-02T14:14:25.933Z,100182.7
2023-04-02T14:16:36.227Z,100189.05
2023-04-02T14:18:44.866Z,100190.6
2023-04-02T14:20:55.866Z,100192.58
2023-04-02T14:23:05.700Z,100206.5
2023-04-02T14:25:13.247Z,100204.83
2023-04-02T14:27:23.098Z,100205.64
2023-04-02T14:29:32.118Z,100207.22
2023-04-02T14:31:41.372Z,100207.88
2023-04-02T14:33:51.265Z,100207.3
2023-04-02T14:36:00.719Z,100214.95
2023-04-02T14:38:10.229Z,100215.05
2023-04-02T14:40:23.510Z,100222.3
2023-04-02T14:42:34.135Z,100220.58
2023-04-02T14:44:43.562Z,100222.01
2023-04-02T14:46:51.984Z,100221.48
2023-04-02T14:49:04.881Z,100223.12
2023-04-02T14:51:13.940Z,100225.81
2023-04-02T14:53:23.133Z,100227.42
2023-04-02T14:55:31.687Z,100234.91
2023-04-02T14:57:40.637Z,100238.53
2023-04-02T14:59:55.544Z,100237.77
2023-04-02T15:02:18.829Z,100246.34
2023-04-02T15:04:43.877Z,100247.08
2023-04-02T15:07:07.998Z,100251.38
2023-04-02T15:09:19.236Z,100253.52
2023-04-02T15:11:29.921Z,100258.06
2023-04-02T15:13:44.157Z,100266.06
2023-04-02T15:16:03.438Z,100267.17
2023-04-02T15:18:15.953Z,100270.23
2023-04-02T15:20:26.120Z,100276.94
2023-04-02T15:22:35.492Z,100280.52
2023-04-02T15:24:45.148Z,100280.48
2023-04-02T15:26:54.828Z,100281.67
2023-04-02T15:29:05.572Z,100284.84
2023-04-02T15:31:35.849Z,100286.91
2023-04-02T15:33:47.431Z,100287.5
2023-04-02T15:35:59.059Z,100284.94
2023-04-02T15:38:08.977Z,100292.83
2023-04-02T15:40:18.057Z,100302.38
2023-04-02T15:42:28.380Z,100304.56
2023-04-02T15:44:37.143Z,100307.02
2023-04-02T15:46:48.660Z,100310.93
2023-04-02T15:49:01.934Z,100318.09
2023-04-02T15:51:11.794Z,100319.68
2023-04-02T15:53:23.455Z,100321.87
2023-04-02T15:55:32.790Z,100327.76
2023-04-02T15:57:43.046Z,100329.73
2023-04-02T15:59:53.604Z,100334.15
2023-04-02T16:02:03.140Z,100336.62
2023-04-02T16:04:14.026Z,100337.08
2023-04-02T16:06:31.601Z,100342.59
2023-04-02T16:08:43.435Z,100347.83
2023-04-02T16:10:54.016Z,100349.86
2023-04-02T16:13:08.731Z,100354.23
2023-04-02T16:15:20.288Z,100357.33
2023-04-02T16:17:38.128Z,100360.54
2023-04-02T16:19:52.931Z,100364.56
2023-04-02T16:22:04.601Z,100364.52
2023-04-02T16:24:19.953Z,100367.63
2023-04-02T16:26:29.086Z,100373.47
2023-04-02T16:28:53.149Z,100372.09
2023-04-02T16:31:05.286Z,100379.93
2023-04-02T16:33:17.150Z,100390.8
2023-04-02T16:38:00.558Z,100395.05
2023-04-02T16:40:14.451Z,100397.72
2023-04-02T16:42:33.677Z,100407.55
2023-04-02T16:44:50.436Z,100407.5
2023-04-02T16:47:06.400Z,100411.08
2023-04-02T16:49:22.594Z,100412.88
2023-04-02T16:51:34.186Z,100418.56
2023-04-02T16:54:02.599Z,100415.89
2023-04-02T16:56:14.774Z,100420.78
2023-04-02T16:58:26.391Z,100424.59
2023-04-02T17:00:39.819Z,100428.06
2023-04-02T17:02:49.007Z,100434.61
2023-04-02T17:04:59.601Z,100434.92
2023-04-02T17:07:11.789Z,100440.72
2023-04-02T17:09:25.190Z,100443.73
2023-04-02T17:11:40.654Z,100442.39
2023-04-02T17:13:54.419Z,100447.93
2023-04-02T17:16:08.038Z,100447.63
2023-04-02T17:18:20.763Z,100454.44
2023-04-02T17:20:31.884Z,100458.59
2023-04-02T17:22:45.545Z,100459.57
2023-04-02T17:24:59.401Z,100465.81
2023-04-02T17:27:12.249Z,100466.96
2023-04-02T17:29:23.088Z,100469.17
2023-04-02T17:31:39.701Z,100471.59
2023-04-02T17:34:04.648Z,100474.95
2023-04-02T17:36:27.298Z,100480.77
2023-04-02T17:38:37.614Z,100485.33
2023-04-02T17:40:54.740Z,100492.22
2023-04-02T17:43:05.624Z,100488.33
2023-04-02T17:45:29.367Z,100492.88
2023-04-02T17:47:40.503Z,100495.37
2023-04-02T17:49:52.567Z,100494.83
2023-04-02T17:52:04.590Z,100494.84
2023-04-02T17:54:19.845Z,100497.5
2023-04-02T17:56:32.296Z,100500.55
2023-04-02T17:58:48.062Z,100504.59
2023-04-02T18:01:02.633Z,100504.94
2023-04-02T18:03:16.115Z,100509.2
2023-04-02T18:05:40.061Z,100512.65
2023-04-02T18:08:01.922Z,100512.26
2023-04-02T18:10:13.748Z,100520.5
2023-04-02T18:12:25.375Z,100515.74
2023-04-02T18:14:43.476Z,100520.69
2023-04-02T18:16:53.569Z,100517.3
2023-04-02T18:19:06.384Z,100522.86
2023-04-02T18:21:16.203Z,100526.4
2023-04-02T18:23:29.500Z,100529.84
2023-04-02T18:25:44.070Z,100529
2023-04-02T18:27:58.640Z,100530.59
2023-04-02T18:30:11.746Z,100541.73
2023-04-02T18:32:41.571Z,100545.63
2023-04-02T18:34:55.794Z,100546.14
2023-04-02T18:37:10.568Z,100548.59
2023-04-02T18:39:27.894Z,100549.7
2023-04-02T18:41:40.051Z,100555.75
2023-04-02T18:43:50.796Z,100565.2
2023-04-02T18:46:09.357Z,100558.22
2023-04-02T18:48:23.087Z,100565.66
2023-04-02T18:50:34.363Z,100569.98
2023-04-02T18:52:48.092Z,100574.58
2023-04-02T18:54:59.535Z,100572.69
2023-04-02T18:57:17.296Z,100578.45
2023-04-02T18:59:39.664Z,100582.13
2023-04-02T19:01:58.086Z,100578.52
2023-04-02T19:04:12.646Z,100579.33
2023-04-02T19:06:24.438Z,100582.63
2023-04-02T19:08:36.828Z,100583.27
2023-04-02T19:10:47.283Z,100582.43
2023-04-02T19:13:02.760Z,100582.84
2023-04-02T19:15:22.923Z,100582.21
2023-04-02T19:17:38.401Z,100583.45
2023-04-02T19:19:54.794Z,100582.48
2023-04-02T19:22:08.588Z,100579.66
2023-04-02T19:24:20.605Z,100576.3
2023-04-02T19:26:32.756Z,100578.13
2023-04-02T19:28:46.022Z,100575.78
2023-04-02T19:30:59.360Z,100580.27
2023-04-02T19:33:20.454Z,100581.02
2023-04-02T19:35:39.097Z,100579.58
2023-04-02T19:37:51.153Z,100580.65
2023-04-02T19:40:06.260Z,100582.81
2023-04-02T19:42:33.466Z,100586.28
2023-04-02T19:44:52.131Z,100589.86
2023-04-02T19:47:05.598Z,100592.09
2023-04-02T19:49:27.246Z,100601.91
2023-04-02T19:51:44.969Z,100602.91
2023-04-02T19:54:10.495Z,100601.7
2023-04-02T19:56:19.910Z,100605.94
2023-04-02T19:58:36.358Z,100607.75
2023-04-02T20:00:47.639Z,100613.33
2023-04-02T20:03:00.760Z,100615.36
2023-04-02T20:05:17.080Z,100613.3
2023-04-02T20:07:31.076Z,100615.16
2023-04-02T20:09:46.879Z,100618.41
2023-04-02T20:12:11.805Z,100622.33
2023-04-02T20:14:22.312Z,100614.23
2023-04-02T20:16:37.471Z,100621.03
2023-04-02T20:18:50.549Z,100620.66
2023-04-02T20:21:00.644Z,100625.88
2023-04-02T20:23:11.537Z,100623.89
2023-04-02T20:25:28.483Z,100632.45
2023-04-02T20:27:41.260Z,100633.97
2023-04-02T20:29:53.385Z,100634.7
2023-04-02T20:32:01.971Z,100638.94
2023-04-02T20:34:10.564Z,100642.73
2023-04-02T20:36:20.678Z,100640.45
2023-04-02T20:38:31.475Z,100639.72
2023-04-02T20:40:41.403Z,100643.16
2023-04-02T20:42:53.935Z,100643.95
2023-04-02T20:45:01.820Z,100647.67
2023-04-02T20:47:10.284Z,100654.98
2023-04-02T20:49:19.660Z,100656.8
2023-04-02T20:51:51.545Z,100656.27
2023-04-02T20:53:59.497Z,100661.4
2023-04-02T20:56:07.612Z,100660.59
2023-04-02T20:58:15.623Z,100655.34
2023-04-02T21:00:23.881Z,100654.07
2023-04-02T21:02:31.789Z,100659.71
2023-04-02T21:04:39.643Z,100659.55
2023-04-02T21:06:47.485Z,100658.27
2023-04-02T21:08:54.967Z,100662.47
2023-04-02T21:11:02.443Z,100664.98
2023-04-02T21:13:10.344Z,100666.74
2023-04-02T21:15:18.857Z,100657.88
2023-04-02T21:17:26.874Z,100662.6
2023-04-02T21:19:34.454Z,100665.05
2023-04-02T21:21:41.517Z,100670.39
2023-04-02T21:23:48.571Z,100663.23
2023-04-02T21:25:56.755Z,100663.25
2023-04-02T21:28:04.683Z,100664.87
2023-04-02T21:30:13.195Z,100662.26
2023-04-02T21:32:23.757Z,100663.64
2023-04-02T21:34:30.188Z,100657.63
2023-04-02T21:36:36.525Z,100659.91
2023-04-02T21:38:43.296Z,100659.84
2023-04-02T21:40:50.201Z,100653.75
2023-04-02T21:42:57.464Z,100658.26
2023-04-02T21:45:04.354Z,100658.68
2023-04-02T21:47:11.948Z,100656.13
2023-04-02T21:49:19.795Z,100658.47
2023-04-02T21:51:27.324Z,100660.19
2023-04-02T21:53:35.303Z,100664.47
2023-04-02T21:55:43.358Z,100660.34
2023-04-02T21:57:50.669Z,100658.52
2023-04-02T21:59:57.618Z,100665.06
2023-04-02T22:02:08.256Z,100664.61
2023-04-02T22:04:16.097Z,100660.79
2023-04-02T22:06:24.154Z,100664.38
2023-04-02T22:08:31.371Z,100669.98
2023-04-02T22:10:39.823Z,100666.42
2023-04-02T22:12:46.332Z,100671.43
2023-04-02T22:14:52.822Z,100672.83
2023-04-02T22:17:00.647Z,100681.95
2023-04-02T22:19:07.547Z,100682.91
2023-04-02T22:21:14.706Z,100681.48
2023-04-02T22:23:23.990Z,100678.44
2023-04-02T22:25:31.718Z,100680.53
2023-04-02T22:27:38.677Z,100680.25
2023-04-02T22:29:45.554Z,100680.02
2023-04-02T22:31:51.969Z,100681.38
2023-04-02T22:33:58.772Z,100683.13
2023-04-02T22:36:05.165Z,100675.44
2023-04-02T22:38:11.866Z,100683.86
2023-04-02T22:40:18.624Z,100684.34
2023-04-02T22:42:24.676Z,100687.91
2023-04-02T22:44:31.536Z,100702.79
2023-04-02T22:46:38.482Z,100693.77
2023-04-02T22:48:45.596Z,100697.23
2023-04-02T22:50:52.526Z,100697.51
2023-04-02T22:52:59.190Z,100703.63
2023-04-02T22:55:06.325Z,100697.59
2023-04-02T22:57:12.949Z,100700.63
2023-04-02T22:59:19.878Z,100700.63
2023-04-02T23:01:26.838Z,100703.36
2023-04-02T23:03:33.862Z,100702.41
2023-04-02T23:05:40.108Z,100699.36
2023-04-02T23:07:47.532Z,100702.3
2023-04-02T23:09:54.541Z,100700.93
2023-04-02T23:12:00.870Z,100699.47
2023-04-02T23:14:07.871Z,100701.39
2023-04-02T23:16:14.237Z,100703.77
2023-04-02T23:18:21.011Z,100699.52
2023-04-02T23:20:28.147Z,100705.48
2023-04-02T23:22:34.481Z,100704.68
2023-04-02T23:24:41.211Z,100708.15
2023-04-02T23:26:48.195Z,100712.81
2023-04-02T23:28:54.494Z,100708.4
2023-04-02T23:31:00.966Z,100707.97
2023-04-02T23:33:08.922Z,100713.78
2023-04-02T23:35:15.342Z,100712.17
2023-04-02T23:37:21.695Z,100709.91
2023-04-02T23:39:28.082Z,100712.92
2023-04-02T23:41:34.809Z,100716.47
2023-04-02T23:43:40.875Z,100714.59
2023-04-02T23:45:47.555Z,100714.74
2023-04-02T23:47:54.348Z,100718.03
2023-04-02T23:50:00.820Z,100720.46
2023-04-02T23:52:07.883Z,100722.95
2023-04-02T23:54:16.096Z,100718.19
2023-04-02T23:56:22.595Z,100725.57
2023-04-02T23:58:28.904Z,100727.13
